sensor_id;sensor_type;location;lat;lon;timestamp;pressure;altitude;pressure_sealevel;temperature;humidity
62617;BME280;62539;51.190;6.808;2023-05-03T00:02:01;102498.91;;;20.25;49.77
62617;BME280;62539;51.190;6.808;2023-05-03T00:04:28;102491.91;;;20.24;49.67
62617;BME280;62539;51.190;6.808;2023-05-03T00:06:54;102492.81;;;20.22;49.86
62617;BME280;62539;51.190;6.808;2023-05-03T00:09:20;102491.94;;;20.21;49.66
62617;BME280;62539;51.190;6.808;2023-05-03T00:11:45;102484.06;;;20.20;49.79
62617;BME280;62539;51.190;6.808;2023-05-03T00:14:10;102486.72;;;20.18;49.87
62617;BME280;62539;51.190;6.808;2023-05-03T00:16:36;102484.13;;;20.17;49.86
62617;BME280;62539;51.190;6.808;2023-05-03T00:19:02;102486.75;;;20.15;49.88
62617;BME280;62539;51.190;6.808;2023-05-03T00:21:27;102486.78;;;20.14;49.90
62617;BME280;62539;51.190;6.808;2023-05-03T00:23:52;102481.53;;;20.12;49.60
62617;BME280;62539;51.190;6.808;2023-05-03T00:26:18;102483.31;;;20.10;49.89
62617;BME280;62539;51.190;6.808;2023-05-03T00:28:44;102485.09;;;20.08;49.96
62617;BME280;62539;51.190;6.808;2023-05-03T00:31:10;102486.00;;;20.07;49.98
62617;BME280;62539;51.190;6.808;2023-05-03T00:33:36;102486.03;;;20.05;50.03
62617;BME280;62539;51.190;6.808;2023-05-03T00:36:08;102493.06;;;20.03;50.39
62617;BME280;62539;51.190;6.808;2023-05-03T00:38:35;102492.19;;;20.03;50.15
62617;BME280;62539;51.190;6.808;2023-05-03T00:41:01;102493.97;;;20.01;50.25
62617;BME280;62539;51.190;6.808;2023-05-03T00:43:28;102492.22;;;20.00;50.26
62617;BME280;62539;51.190;6.808;2023-05-03T00:45:54;102489.63;;;19.98;50.38
62617;BME280;62539;51.190;6.808;2023-05-03T00:48:19;102484.38;;;19.96;50.32
62617;BME280;62539;51.190;6.808;2023-05-03T00:50:46;102486.16;;;19.94;50.36
62617;BME280;62539;51.190;6.808;2023-05-03T00:53:13;102487.03;;;19.93;50.56
62617;BME280;62539;51.190;6.808;2023-05-03T00:55:39;102488.81;;;19.91;50.61
62617;BME280;62539;51.190;6.808;2023-05-03T00:58:06;102488.88;;;19.90;50.59
62617;BME280;62539;51.190;6.808;2023-05-03T01:00:31;102480.94;;;19.88;50.45
62617;BME280;62539;51.190;6.808;2023-05-03T01:02:57;102487.09;;;19.87;50.59
62617;BME280;62539;51.190;6.808;2023-05-03T01:05:24;102479.22;;;19.86;50.65
62617;BME280;62539;51.190;6.808;2023-05-03T01:08:22;102480.13;;;19.83;50.80
62617;BME280;62539;51.190;6.808;2023-05-03T01:11:06;102483.63;;;19.82;50.61
62617;BME280;62539;51.190;6.808;2023-05-03T01:13:43;102481.03;;;19.80;50.88
62617;BME280;62539;51.190;6.808;2023-05-03T01:16:39;102473.19;;;19.77;50.88
62617;BME280;62539;51.190;6.808;2023-05-03T01:19:28;102478.44;;;19.76;51.37
62617;BME280;62539;51.190;6.808;2023-05-03T01:22:36;102485.50;;;19.74;50.98
62617;BME280;62539;51.190;6.808;2023-05-03T01:25:08;102480.25;;;19.72;50.87
62617;BME280;62539;51.190;6.808;2023-05-03T01:27:36;102485.53;;;19.71;51.05
62617;BME280;62539;51.190;6.808;2023-05-03T01:30:04;102479.41;;;19.70;50.86
62617;BME280;62539;51.190;6.808;2023-05-03T01:38:06;102490.88;;;19.64;51.25
62617;BME280;62539;51.190;6.808;2023-05-03T01:40:39;102491.75;;;19.63;51.22
62617;BME280;62539;51.190;6.808;2023-05-03T01:43:12;102496.19;;;19.63;51.35
62617;BME280;62539;51.190;6.808;2023-05-03T01:45:41;102491.81;;;19.62;51.15
62617;BME280;62539;51.190;6.808;2023-05-03T01:48:13;102489.16;;;19.60;51.31
62617;BME280;62539;51.190;6.808;2023-05-03T01:50:39;102491.84;;;19.59;51.30
62617;BME280;62539;51.190;6.808;2023-05-03T01:53:05;102496.22;;;19.58;51.17
62617;BME280;62539;51.190;6.808;2023-05-03T01:55:30;102490.97;;;19.57;51.37
62617;BME280;62539;51.190;6.808;2023-05-03T01:57:56;102491.88;;;19.56;51.37
62617;BME280;62539;51.190;6.808;2023-05-03T02:00:21;102500.63;;;19.56;51.38
62617;BME280;62539;51.190;6.808;2023-05-03T02:02:47;102499.75;;;19.54;51.27
62617;BME280;62539;51.190;6.808;2023-05-03T02:05:12;102498.91;;;19.53;51.21
62617;BME280;62539;51.190;6.808;2023-05-03T02:07:38;102503.28;;;19.53;51.36
62617;BME280;62539;51.190;6.808;2023-05-03T02:10:04;102495.44;;;19.51;51.43
62617;BME280;62539;51.190;6.808;2023-05-03T02:12:30;102498.06;;;19.50;51.50
62617;BME280;62539;51.190;6.808;2023-05-03T02:14:56;102498.94;;;19.49;51.42
62617;BME280;62539;51.190;6.808;2023-05-03T02:17:21;102500.72;;;19.47;51.41
62617;BME280;62539;51.190;6.808;2023-05-03T02:19:50;102509.50;;;19.47;51.45
62617;BME280;62539;51.190;6.808;2023-05-03T02:22:18;102510.41;;;19.46;51.50
62617;BME280;62539;51.190;6.808;2023-05-03T02:24:44;102516.56;;;19.45;51.50
62617;BME280;62539;51.190;6.808;2023-05-03T02:27:09;102519.19;;;19.44;51.55
62617;BME280;62539;51.190;6.808;2023-05-03T02:29:36;102513.91;;;19.44;51.58
62617;BME280;62539;51.190;6.808;2023-05-03T02:32:01;102520.97;;;19.42;51.64
62617;BME280;62539;51.190;6.808;2023-05-03T02:34:29;102526.25;;;19.40;51.53
62617;BME280;62539;51.190;6.808;2023-05-03T02:36:56;102535.00;;;19.41;51.53
62617;BME280;62539;51.190;6.808;2023-05-03T02:39:21;102524.50;;;19.37;51.54
62617;BME280;62539;51.190;6.808;2023-05-03T02:41:46;102529.78;;;19.37;51.55
62617;BME280;62539;51.190;6.808;2023-05-03T02:44:12;102531.53;;;19.37;51.75
62617;BME280;62539;51.190;6.808;2023-05-03T02:46:37;102521.91;;;19.36;51.69
62617;BME280;62539;51.190;6.808;2023-05-03T02:49:32;102531.56;;;19.34;51.74
62617;BME280;62539;51.190;6.808;2023-05-03T02:51:57;102528.94;;;19.32;51.63
62617;BME280;62539;51.190;6.808;2023-05-03T02:54:23;102527.19;;;19.31;51.49
62617;BME280;62539;51.190;6.808;2023-05-03T02:56:48;102528.09;;;19.30;51.84
62617;BME280;62539;51.190;6.808;2023-05-03T02:59:14;102515.81;;;19.29;51.76
62617;BME280;62539;51.190;6.808;2023-05-03T03:01:39;102517.59;;;19.29;51.71
62617;BME280;62539;51.190;6.808;2023-05-03T03:04:05;102518.47;;;19.28;51.82
62617;BME280;62539;51.190;6.808;2023-05-03T03:06:31;102521.09;;;19.26;51.68
62617;BME280;62539;51.190;6.808;2023-05-03T03:08:56;102508.84;;;19.25;51.80
62617;BME280;62539;51.190;6.808;2023-05-03T03:11:22;102508.88;;;19.23;51.87
62617;BME280;62539;51.190;6.808;2023-05-03T03:13:48;102507.09;;;19.24;51.81
62617;BME280;62539;51.190;6.808;2023-05-03T03:16:13;102494.81;;;19.23;52.02
62617;BME280;62539;51.190;6.808;2023-05-03T03:18:39;102505.38;;;19.21;51.69
62617;BME280;62539;51.190;6.808;2023-05-03T03:21:04;102490.47;;;19.20;51.85
62617;BME280;62539;51.190;6.808;2023-05-03T03:23:30;102487.00;;;19.18;51.82
62617;BME280;62539;51.190;6.808;2023-05-03T03:25:55;102488.75;;;19.18;51.88
62617;BME280;62539;51.190;6.808;2023-05-03T03:28:20;102479.09;;;19.17;51.84
62617;BME280;62539;51.190;6.808;2023-05-03T03:30:46;102475.63;;;19.15;51.75
62617;BME280;62539;51.190;6.808;2023-05-03T03:33:12;102478.25;;;19.15;51.93
62617;BME280;62539;51.190;6.808;2023-05-03T03:35:38;102475.63;;;19.15;52.12
62617;BME280;62539;51.190;6.808;2023-05-03T03:38:04;102477.34;;;19.16;51.70
62617;BME280;62539;51.190;6.808;2023-05-03T03:40:30;102469.44;;;19.20;50.52
62617;BME280;62539;51.190;6.808;2023-05-03T03:42:55;102474.66;;;19.23;50.14
62617;BME280;62539;51.190;6.808;2023-05-03T03:45:21;102470.22;;;19.29;49.67
62617;BME280;62539;51.190;6.808;2023-05-03T03:47:46;102474.56;;;19.33;49.15
62617;BME280;62539;51.190;6.808;2023-05-03T03:50:12;102471.00;;;19.38;49.00
62617;BME280;62539;51.190;6.808;2023-05-03T03:52:37;102463.91;;;19.44;48.71
62617;BME280;62539;51.190;6.808;2023-05-03T03:55:03;102470.00;;;19.49;48.58
62617;BME280;62539;51.190;6.808;2023-05-03T03:57:29;102462.91;;;19.54;48.40
62617;BME280;62539;51.190;6.808;2023-05-03T03:59:56;102467.25;;;19.58;48.19
62617;BME280;62539;51.190;6.808;2023-05-03T04:02:22;102461.06;;;19.62;48.11
62617;BME280;62539;51.190;6.808;2023-05-03T04:04:48;102457.53;;;19.63;48.31
62617;BME280;62539;51.190;6.808;2023-05-03T04:07:14;102456.66;;;19.64;48.60
62617;BME280;62539;51.190;6.808;2023-05-03T04:09:39;102453.97;;;19.67;48.46
62617;BME280;62539;51.190;6.808;2023-05-03T04:12:04;102446.94;;;19.69;49.35
62617;BME280;62539;51.190;6.808;2023-05-03T04:14:30;102441.63;;;19.73;49.25
62617;BME280;62539;51.190;6.808;2023-05-03T04:16:55;102448.63;;;19.74;48.31
62617;BME280;62539;51.190;6.808;2023-05-03T04:19:21;102446.00;;;19.74;47.72
62617;BME280;62539;51.190;6.808;2023-05-03T04:21:47;102446.84;;;19.76;47.32
62617;BME280;62539;51.190;6.808;2023-05-03T04:24:15;102445.06;;;19.78;46.92
62617;BME280;62539;51.190;6.808;2023-05-03T04:26:42;102455.56;;;19.81;46.68
62617;BME280;62539;51.190;6.808;2023-05-03T04:29:08;102464.31;;;19.83;46.76
62617;BME280;62539;51.190;6.808;2023-05-03T04:31:36;102468.69;;;19.86;47.25
62617;BME280;62539;51.190;6.808;2023-05-03T04:34:02;102469.53;;;19.86;47.38
62617;BME280;62539;51.190;6.808;2023-05-03T04:36:28;102473.06;;;19.85;45.78
62617;BME280;62539;51.190;6.808;2023-05-03T04:38:54;102475.69;;;19.85;45.40
62617;BME280;62539;51.190;6.808;2023-05-03T04:41:20;102478.34;;;19.85;44.91
62617;BME280;62539;51.190;6.808;2023-05-03T04:43:46;102486.22;;;19.87;44.48
62617;BME280;62539;51.190;6.808;2023-05-03T04:46:12;102480.94;;;19.88;44.77
62617;BME280;62539;51.190;6.808;2023-05-03T04:48:37;102481.81;;;19.92;44.87
62617;BME280;62539;51.190;6.808;2023-05-03T04:51:03;102480.03;;;19.92;44.68
62617;BME280;62539;51.190;6.808;2023-05-03T04:53:29;102482.63;;;19.95;45.37
62617;BME280;62539;51.190;6.808;2023-05-03T04:55:55;102479.09;;;19.98;46.51
62617;BME280;62539;51.190;6.808;2023-05-03T04:58:20;102486.97;;;20.00;46.40
62617;BME280;62539;51.190;6.808;2023-05-03T05:00:45;102485.22;;;20.00;44.97
62617;BME280;62539;51.190;6.808;2023-05-03T05:03:11;102492.22;;;20.00;44.44
62617;BME280;62539;51.190;6.808;2023-05-03T05:05:36;102499.25;;;20.01;44.99
62617;BME280;62539;51.190;6.808;2023-05-03T05:08:02;102490.44;;;20.02;44.90
62617;BME280;62539;51.190;6.808;2023-05-03T05:10:27;102496.56;;;20.04;44.86
62617;BME280;62539;51.190;6.808;2023-05-03T05:12:53;102497.41;;;20.06;45.61
62617;BME280;62539;51.190;6.808;2023-05-03T05:15:18;102498.28;;;20.08;45.32
62617;BME280;62539;51.190;6.808;2023-05-03T05:17:43;102501.75;;;20.10;45.92
62617;BME280;62539;51.190;6.808;2023-05-03T05:20:09;102502.59;;;20.14;46.38
62617;BME280;62539;51.190;6.808;2023-05-03T05:22:37;102505.19;;;20.17;46.53
62617;BME280;62539;51.190;6.808;2023-05-03T05:25:04;102505.16;;;20.20;46.84
62617;BME280;62539;51.190;6.808;2023-05-03T05:27:31;102517.44;;;20.21;46.65
62617;BME280;62539;51.190;6.808;2023-05-03T05:29:56;102520.03;;;20.22;47.14
62617;BME280;62539;51.190;6.808;2023-05-03T05:32:22;102522.66;;;20.24;46.72
62617;BME280;62539;51.190;6.808;2023-05-03T05:34:47;102526.16;;;20.26;46.85
62617;BME280;62539;51.190;6.808;2023-05-03T05:37:19;102527.00;;;20.26;46.79
62617;BME280;62539;51.190;6.808;2023-05-03T05:39:46;102531.38;;;20.27;47.24
62617;BME280;62539;51.190;6.808;2023-05-03T05:42:12;102535.75;;;20.29;47.33
62617;BME280;62539;51.190;6.808;2023-05-03T05:44:38;102534.00;;;20.29;46.98
62617;BME280;62539;51.190;6.808;2023-05-03T05:47:03;102531.38;;;20.29;46.70
62617;BME280;62539;51.190;6.808;2023-05-03T05:49:29;102528.69;;;20.31;46.92
62617;BME280;62539;51.190;6.808;2023-05-03T05:51:54;102530.44;;;20.32;47.19
62617;BME280;62539;51.190;6.808;2023-05-03T05:54:20;102533.03;;;20.35;46.92
62617;BME280;62539;51.190;6.808;2023-05-03T05:56:46;102533.88;;;20.37;46.48
62617;BME280;62539;51.190;6.808;2023-05-03T05:59:11;102543.53;;;20.39;46.74
62617;BME280;62539;51.190;6.808;2023-05-03T06:01:36;102540.00;;;20.40;47.09
62617;BME280;62539;51.190;6.808;2023-05-03T06:04:05;102539.09;;;20.41;46.99
62617;BME280;62539;51.190;6.808;2023-05-03T06:06:31;102539.06;;;20.43;46.61
62617;BME280;62539;51.190;6.808;2023-05-03T06:08:56;102546.97;;;20.43;46.85
62617;BME280;62539;51.190;6.808;2023-05-03T06:11:22;102542.56;;;20.45;46.63
62617;BME280;62539;51.190;6.808;2023-05-03T06:13:47;102542.56;;;20.45;47.10
62617;BME280;62539;51.190;6.808;2023-05-03T06:16:13;102544.34;;;20.45;46.88
62617;BME280;62539;51.190;6.808;2023-05-03T06:18:38;102549.56;;;20.46;46.57
62617;BME280;62539;51.190;6.808;2023-05-03T06:21:03;102546.03;;;20.47;46.88
62617;BME280;62539;51.190;6.808;2023-05-03T06:23:29;102550.41;;;20.48;47.43
62617;BME280;62539;51.190;6.808;2023-05-03T06:25:54;102549.53;;;20.49;47.54
62617;BME280;62539;51.190;6.808;2023-05-03T06:28:20;102553.91;;;20.52;47.17
62617;BME280;62539;51.190;6.808;2023-05-03T06:30:49;102550.38;;;20.53;47.06
62617;BME280;62539;51.190;6.808;2023-05-03T06:33:14;102548.59;;;20.55;46.70
62617;BME280;62539;51.190;6.808;2023-05-03T06:35:40;102552.91;;;20.58;46.86
62617;BME280;62539;51.190;6.808;2023-05-03T06:38:06;102551.13;;;20.60;46.59
62617;BME280;62539;51.190;6.808;2023-05-03T06:40:33;102551.13;;;20.61;47.36
62617;BME280;62539;51.190;6.808;2023-05-03T06:42:59;102547.56;;;20.64;47.47
62617;BME280;62539;51.190;6.808;2023-05-03T06:45:24;102544.03;;;20.65;47.68
62617;BME280;62539;51.190;6.808;2023-05-03T06:47:50;102544.88;;;20.67;47.41
62617;BME280;62539;51.190;6.808;2023-05-03T06:50:15;102541.34;;;20.68;46.64
62617;BME280;62539;51.190;6.808;2023-05-03T06:52:41;102543.06;;;20.70;46.82
62617;BME280;62539;51.190;6.808;2023-05-03T06:55:07;102549.19;;;20.73;46.66
62617;BME280;62539;51.190;6.808;2023-05-03T06:57:33;102540.38;;;20.74;47.16
62617;BME280;62539;51.190;6.808;2023-05-03T06:59:58;102541.25;;;20.76;47.40
62617;BME280;62539;51.190;6.808;2023-05-03T07:02:24;102547.38;;;20.76;47.22
62617;BME280;62539;51.190;6.808;2023-05-03T07:04:50;102556.16;;;20.78;47.43
62617;BME280;62539;51.190;6.808;2023-05-03T07:07:16;102552.63;;;20.79;47.11
62617;BME280;62539;51.190;6.808;2023-05-03T07:09:41;102547.34;;;20.81;47.37
62617;BME280;62539;51.190;6.808;2023-05-03T07:12:07;102549.09;;;20.82;47.37
62617;BME280;62539;51.190;6.808;2023-05-03T07:14:32;102547.31;;;20.82;47.54
62617;BME280;62539;51.190;6.808;2023-05-03T07:16:57;102542.03;;;20.82;48.13
62617;BME280;62539;51.190;6.808;2023-05-03T07:19:23;102545.50;;;20.84;47.94
62617;BME280;62539;51.190;6.808;2023-05-03T07:21:48;102550.78;;;20.84;48.12
62617;BME280;62539;51.190;6.808;2023-05-03T07:24:15;102549.88;;;20.87;47.90
62617;BME280;62539;51.190;6.808;2023-05-03T07:26:40;102540.19;;;20.88;47.49
62617;BME280;62539;51.190;6.808;2023-05-03T07:29:05;102542.81;;;20.89;47.57
62617;BME280;62539;51.190;6.808;2023-05-03T07:31:31;102537.53;;;20.89;47.80
62617;BME280;62539;51.190;6.808;2023-05-03T07:33:56;102537.50;;;20.91;47.93
62617;BME280;62539;51.190;6.808;2023-05-03T07:36:22;102534.84;;;20.92;48.11
62617;BME280;62539;51.190;6.808;2023-05-03T07:38:47;102538.34;;;20.93;48.22
62617;BME280;62539;51.190;6.808;2023-05-03T07:41:13;102534.81;;;20.94;48.19
62617;BME280;62539;51.190;6.808;2023-05-03T07:43:38;102514.56;;;20.96;48.00
62617;BME280;62539;51.190;6.808;2023-05-03T07:46:03;102518.94;;;20.97;47.92
62617;BME280;62539;51.190;6.808;2023-05-03T07:48:29;102520.66;;;20.98;47.51
62617;BME280;62539;51.190;6.808;2023-05-03T07:50:54;102516.25;;;21.00;47.44
62617;BME280;62539;51.190;6.808;2023-05-03T07:53:20;102508.31;;;21.00;47.14
62617;BME280;62539;51.190;6.808;2023-05-03T07:55:45;102510.06;;;21.01;47.19
62617;BME280;62539;51.190;6.808;2023-05-03T07:58:11;102515.28;;;21.04;47.48
62617;BME280;62539;51.190;6.808;2023-05-03T08:00:36;102506.47;;;21.05;47.54
62617;BME280;62539;51.190;6.808;2023-05-03T08:03:02;102508.22;;;21.06;47.22
62617;BME280;62539;51.190;6.808;2023-05-03T08:05:30;102518.78;;;21.06;47.34
62617;BME280;62539;51.190;6.808;2023-05-03T08:07:55;102510.84;;;21.08;47.42
62617;BME280;62539;51.190;6.808;2023-05-03T08:10:21;102509.97;;;21.07;47.23
62617;BME280;62539;51.190;6.808;2023-05-03T08:12:47;102513.44;;;21.09;47.15
62617;BME280;62539;51.190;6.808;2023-05-03T08:15:12;102513.44;;;21.09;47.40
62617;BME280;62539;51.190;6.808;2023-05-03T08:17:42;102511.66;;;21.11;47.23
62617;BME280;62539;51.190;6.808;2023-05-03T08:20:09;102503.72;;;21.11;47.18
62617;BME280;62539;51.190;6.808;2023-05-03T08:22:37;102501.09;;;21.11;46.97
62617;BME280;62539;51.190;6.808;2023-05-03T08:25:04;102511.66;;;21.11;46.96
62617;BME280;62539;51.190;6.808;2023-05-03T08:27:31;102504.56;;;21.13;46.95
62617;BME280;62539;51.190;6.808;2023-05-03T08:29:56;102501.03;;;21.14;47.05
62617;BME280;62539;51.190;6.808;2023-05-03T08:32:22;102507.19;;;21.15;47.33
62617;BME280;62539;51.190;6.808;2023-05-03T08:34:49;102499.25;;;21.17;47.18
62617;BME280;62539;51.190;6.808;2023-05-03T08:37:14;102500.97;;;21.18;47.32
62617;BME280;62539;51.190;6.808;2023-05-03T08:39:40;102508.00;;;21.19;47.14
62617;BME280;62539;51.190;6.808;2023-05-03T08:42:06;102497.44;;;21.19;47.14
62617;BME280;62539;51.190;6.808;2023-05-03T08:44:35;102504.47;;;21.20;46.91
62617;BME280;62539;51.190;6.808;2023-05-03T08:47:02;102502.72;;;21.19;47.14
62617;BME280;62539;51.190;6.808;2023-05-03T08:49:31;102488.63;;;21.20;47.08
62617;BME280;62539;51.190;6.808;2023-05-03T08:51:58;102502.66;;;21.22;46.94
62617;BME280;62539;51.190;6.808;2023-05-03T08:54:26;102499.09;;;21.24;47.18
62617;BME280;62539;51.190;6.808;2023-05-03T08:56:51;102499.06;;;21.26;47.11
62617;BME280;62539;51.190;6.808;2023-05-03T08:59:17;102496.38;;;21.27;46.87
62617;BME280;62539;51.190;6.808;2023-05-03T09:01:42;102490.19;;;21.30;47.28
62617;BME280;62539;51.190;6.808;2023-05-03T09:04:09;102492.78;;;21.33;46.94
62617;BME280;62539;51.190;6.808;2023-05-03T09:06:36;102491.88;;;21.34;45.84
62617;BME280;62539;51.190;6.808;2023-05-03T09:09:04;102495.41;;;21.33;44.33
62617;BME280;62539;51.190;6.808;2023-05-03T09:11:35;102488.34;;;21.34;43.99
62617;BME280;62539;51.190;6.808;2023-05-03T09:14:11;102483.97;;;21.34;44.05
62617;BME280;62539;51.190;6.808;2023-05-03T09:16:37;102476.00;;;21.36;44.25
62617;BME280;62539;51.190;6.808;2023-05-03T09:19:05;102476.88;;;21.36;44.16
62617;BME280;62539;51.190;6.808;2023-05-03T09:21:34;102471.59;;;21.36;44.53
62617;BME280;62539;51.190;6.808;2023-05-03T09:24:01;102473.34;;;21.37;44.85
62617;BME280;62539;51.190;6.808;2023-05-03T09:26:31;102475.03;;;21.40;45.12
62617;BME280;62539;51.190;6.808;2023-05-03T09:29:00;102474.97;;;21.43;45.45
62617;BME280;62539;51.190;6.808;2023-05-03T09:31:28;102470.53;;;21.47;45.35
62617;BME280;62539;51.190;6.808;2023-05-03T09:33:55;102467.81;;;21.50;45.56
62617;BME280;62539;51.190;6.808;2023-05-03T09:36:21;102462.47;;;21.53;45.77
62617;BME280;62539;51.190;6.808;2023-05-03T09:38:48;102457.16;;;21.54;45.76
62617;BME280;62539;51.190;6.808;2023-05-03T09:41:15;102462.44;;;21.54;45.82
62617;BME280;62539;51.190;6.808;2023-05-03T09:43:51;102457.13;;;21.56;46.04
62617;BME280;62539;51.190;6.808;2023-05-03T09:46:19;102456.16;;;21.60;46.01
62617;BME280;62539;51.190;6.808;2023-05-03T09:48:45;102456.13;;;21.63;45.98
62617;BME280;62539;51.190;6.808;2023-05-03T09:51:11;102460.44;;;21.67;46.01
62617;BME280;62539;51.190;6.808;2023-05-03T09:53:38;102450.66;;;21.72;45.98
62617;BME280;62539;51.190;6.808;2023-05-03T09:56:05;102447.03;;;21.77;45.99
62617;BME280;62539;51.190;6.808;2023-05-03T09:58:44;102448.72;;;21.81;46.08
62617;BME280;62539;51.190;6.808;2023-05-03T10:01:10;102448.66;;;21.84;46.15
62617;BME280;62539;51.190;6.808;2023-05-03T10:03:44;102438.88;;;21.87;45.77
62617;BME280;62539;51.190;6.808;2023-05-03T10:06:34;102444.91;;;21.93;45.89
62617;BME280;62539;51.190;6.808;2023-05-03T10:09:14;102438.72;;;21.95;46.20
62617;BME280;62539;51.190;6.808;2023-05-03T10:11:51;102427.25;;;21.96;46.35
62617;BME280;62539;51.190;6.808;2023-05-03T10:14:18;102431.63;;;21.96;46.41
62617;BME280;62539;51.190;6.808;2023-05-03T10:16:48;102422.88;;;21.95;46.43
62617;BME280;62539;51.190;6.808;2023-05-03T10:19:33;102429.84;;;21.98;46.27
62617;BME280;62539;51.190;6.808;2023-05-03T10:22:03;102426.22;;;22.02;46.26
62617;BME280;62539;51.190;6.808;2023-05-03T10:24:37;102424.34;;;22.07;46.53
62617;BME280;62539;51.190;6.808;2023-05-03T10:27:24;102416.31;;;22.12;46.26
62617;BME280;62539;51.190;6.808;2023-05-03T10:29:50;102409.16;;;22.17;46.05
62617;BME280;62539;51.190;6.808;2023-05-03T10:32:35;102415.22;;;22.21;46.03
62617;BME280;62539;51.190;6.808;2023-05-03T10:35:13;102418.53;;;22.29;45.98
62617;BME280;62539;51.190;6.808;2023-05-03T10:37:41;102415.06;;;22.27;43.20
62617;BME280;62539;51.190;6.808;2023-05-03T10:40:14;102406.38;;;22.22;41.45
62617;BME280;62539;51.190;6.808;2023-05-03T10:42:48;102400.38;;;22.15;39.88
62617;BME280;62539;51.190;6.808;2023-05-03T10:45:26;102412.84;;;22.10;38.80
62617;BME280;62539;51.190;6.808;2023-05-03T10:50:37;102423.41;;;22.10;37.53
62617;BME280;62539;51.190;6.808;2023-05-03T10:53:06;102416.19;;;22.16;36.79
62617;BME280;62539;51.190;6.808;2023-05-03T10:55:32;102413.41;;;22.23;35.26
62617;BME280;62539;51.190;6.808;2023-05-03T10:57:59;102404.56;;;22.24;35.70
62617;BME280;62539;51.190;6.808;2023-05-03T11:00:38;102403.81;;;22.18;34.90
62617;BME280;62539;51.190;6.808;2023-05-03T11:05:49;102409.84;;;22.24;35.01
62617;BME280;62539;51.190;6.808;2023-05-03T11:08:20;102403.56;;;22.29;33.56
62617;BME280;62539;51.190;6.808;2023-05-03T11:10:48;102391.19;;;22.31;33.70
62617;BME280;62539;51.190;6.808;2023-05-03T11:13:15;102394.72;;;22.30;33.89
62617;BME280;62539;51.190;6.808;2023-05-03T11:15:41;102388.59;;;22.28;33.86
62617;BME280;62539;51.190;6.808;2023-05-03T11:18:08;102384.22;;;22.27;33.74
62617;BME280;62539;51.190;6.808;2023-05-03T11:20:37;102386.81;;;22.29;33.70
62617;BME280;62539;51.190;6.808;2023-05-03T11:23:03;102378.78;;;22.34;33.57
62617;BME280;62539;51.190;6.808;2023-05-03T11:25:30;102371.69;;;22.36;33.02
62617;BME280;62539;51.190;6.808;2023-05-03T11:27:58;102371.69;;;22.36;32.46
62617;BME280;62539;51.190;6.808;2023-05-03T11:30:26;102367.22;;;22.38;32.47
62617;BME280;62539;51.190;6.808;2023-05-03T11:32:53;102371.53;;;22.42;32.83
62617;BME280;62539;51.190;6.808;2023-05-03T11:35:19;102356.28;;;22.53;32.29
62617;BME280;62539;51.190;6.808;2023-05-03T11:37:48;102357.81;;;22.62;32.37
62617;BME280;62539;51.190;6.808;2023-05-03T11:40:14;102355.97;;;22.64;32.60
62617;BME280;62539;51.190;6.808;2023-05-03T11:43:08;102354.13;;;22.68;32.21
62617;BME280;62539;51.190;6.808;2023-05-03T11:45:41;102359.13;;;22.79;32.72
62617;BME280;62539;51.190;6.808;2023-05-03T11:48:11;102354.28;;;22.95;33.30
62617;BME280;62539;51.190;6.808;2023-05-03T11:50:47;102354.69;;;23.12;32.85
62617;BME280;62539;51.190;6.808;2023-05-03T11:53:17;102352.44;;;23.30;32.62
62617;BME280;62539;51.190;6.808;2023-05-03T11:55:45;102353.72;;;23.45;33.08
62617;BME280;62539;51.190;6.808;2023-05-03T11:58:13;102350.69;;;23.59;33.55
62617;BME280;62539;51.190;6.808;2023-05-03T12:00:44;102351.97;;;23.74;33.62
62617;BME280;62539;51.190;6.808;2023-05-03T12:03:23;102351.41;;;23.91;32.74
62617;BME280;62539;51.190;6.808;2023-05-03T12:05:50;102347.56;;;24.01;33.71
62617;BME280;62539;51.190;6.808;2023-05-03T12:08:19;102350.81;;;24.11;33.92
62617;BME280;62539;51.190;6.808;2023-05-03T12:10:49;102349.59;;;24.20;34.30
62617;BME280;62539;51.190;6.808;2023-05-03T12:13:26;102354.56;;;24.31;34.05
62617;BME280;62539;51.190;6.808;2023-05-03T12:15:57;102353.25;;;24.43;34.58
62617;BME280;62539;51.190;6.808;2023-05-03T12:18:27;102346.00;;;24.48;34.23
62617;BME280;62539;51.190;6.808;2023-05-03T12:21:08;102338.94;;;24.48;33.46
62617;BME280;62539;51.190;6.808;2023-05-03T12:23:34;102333.34;;;24.56;32.95
62617;BME280;62539;51.190;6.808;2023-05-03T12:25:59;102334.97;;;24.60;32.38
62617;BME280;62539;51.190;6.808;2023-05-03T12:28:25;102334.13;;;24.60;32.22
62617;BME280;62539;51.190;6.808;2023-05-03T12:30:50;102332.28;;;24.62;31.88
62617;BME280;62539;51.190;6.808;2023-05-03T12:33:15;102324.13;;;24.66;31.38
62617;BME280;62539;51.190;6.808;2023-05-03T12:35:43;102317.69;;;24.75;30.77
62617;BME280;62539;51.190;6.808;2023-05-03T12:38:09;102312.88;;;24.85;30.79
62617;BME280;62539;51.190;6.808;2023-05-03T12:40:34;102314.50;;;24.89;30.42
62617;BME280;62539;51.190;6.808;2023-05-03T12:43:00;102301.34;;;24.86;30.36
62617;BME280;62539;51.190;6.808;2023-05-03T12:45:26;102302.03;;;24.91;30.15
62617;BME280;62539;51.190;6.808;2023-05-03T12:47:54;102308.03;;;24.97;30.16
62617;BME280;62539;51.190;6.808;2023-05-03T12:50:19;102302.09;;;25.14;30.04
62617;BME280;62539;51.190;6.808;2023-05-03T12:52:45;102295.75;;;25.40;30.24
62617;BME280;62539;51.190;6.808;2023-05-03T12:55:10;102300.91;;;25.67;29.96
62617;BME280;62539;51.190;6.808;2023-05-03T12:57:36;102295.22;;;25.76;30.71
62617;BME280;62539;51.190;6.808;2023-05-03T13:00:01;102289.53;;;25.86;30.51
62617;BME280;62539;51.190;6.808;2023-05-03T13:02:28;102287.66;;;25.88;30.67
62617;BME280;62539;51.190;6.808;2023-05-03T13:04:53;102282.34;;;25.88;29.88